createdAt,value
2019-04-11T00:02:22.687Z,49.20
2019-04-11T00:04:55.014Z,44.80
2019-04-11T00:07:27.934Z,44.40
2019-04-11T00:09:59.466Z,46.20
2019-04-11T00:12:32.658Z,49.00
2019-04-11T00:15:04.373Z,45.80
2019-04-11T00:17:36.293Z,51.00
2019-04-11T00:20:07.974Z,47.60
2019-04-11T00:22:41.515Z,47.80
2019-04-11T00:25:13.584Z,47.20
2019-04-11T00:27:46.787Z,52.80
2019-04-11T00:30:19.833Z,53.00
2019-04-11T00:32:51.864Z,49.80
2019-04-11T00:35:23.987Z,51.80
2019-04-11T00:37:55.840Z,51.60
2019-04-11T00:40:27.475Z,51.80
2019-04-11T00:42:59.100Z,51.00
2019-04-11T00:45:31.802Z,52.40
2019-04-11T00:48:03.842Z,53.80
2019-04-11T00:50:35.749Z,57.80
2019-04-11T00:53:07.310Z,54.00
2019-04-11T00:55:39.846Z,56.00
2019-04-11T00:58:11.689Z,56.60
2019-04-11T01:00:44.735Z,54.80
2019-04-11T01:03:17.991Z,55.80
2019-04-11T01:05:49.972Z,58.00
2019-04-11T01:08:21.862Z,59.80
2019-04-11T01:10:53.344Z,61.40
2019-04-11T01:13:25.917Z,62.80
2019-04-11T01:16:03.146Z,64.20
2019-04-11T01:18:34.801Z,64.20
2019-04-11T01:21:06.709Z,59.80
2019-04-11T01:23:39.410Z,61.60
2019-04-11T01:26:10.967Z,61.80
2019-04-11T01:28:42.940Z,65.80
2019-04-11T01:31:15.636Z,65.60
2019-04-11T01:33:48.303Z,45.20
2019-04-11T01:36:20.598Z,50.60
2019-04-11T01:38:55.342Z,56.80
2019-04-11T01:41:26.719Z,54.20
2019-04-11T01:44:02.149Z,53.60
2019-04-11T01:46:31.941Z,57.40
2019-04-11T01:49:17.638Z,59.60
2019-04-11T01:51:49.778Z,58.00
2019-04-11T01:54:21.832Z,56.80
2019-04-11T01:56:53.780Z,61.00
2019-04-11T01:59:25.645Z,62.20
2019-04-11T02:02:13.943Z,61.80
2019-04-11T02:05:05.324Z,59.60
2019-04-11T02:07:37.045Z,59.60
2019-04-11T02:10:09.144Z,64.00
2019-04-11T02:12:41.572Z,65.80
2019-04-11T02:15:14.305Z,68.00
2019-04-11T02:17:46.735Z,69.00
2019-04-11T02:20:18.769Z,63.40
2019-04-11T02:23:07.367Z,78.00
2019-04-11T02:25:58.055Z,65.60
2019-04-11T02:28:30.912Z,63.00
2019-04-11T02:31:04.604Z,60.60
2019-04-11T02:33:37.118Z,73.60
2019-04-11T02:36:11.728Z,60.00
2019-04-11T02:38:44.054Z,66.00
2019-04-11T02:41:17.091Z,77.00
2019-04-11T02:43:49.478Z,84.80
2019-04-11T02:46:34.722Z,69.60
2019-04-11T02:48:56.792Z,79.40
2019-04-11T02:51:31.138Z,79.60
2019-04-11T02:54:04.557Z,81.60
2019-04-11T02:56:36.525Z,75.20
2019-04-11T02:59:08.995Z,80.60
2019-04-11T03:01:42.024Z,76.00
2019-04-11T03:04:14.843Z,73.20
2019-04-11T03:06:47.910Z,83.40
2019-04-11T03:09:21.874Z,86.80
2019-04-11T03:11:54.709Z,89.60
2019-04-11T03:14:32.751Z,83.60
2019-04-11T03:17:11.907Z,82.00
2019-04-11T03:19:47.717Z,80.40
2019-04-11T03:22:09.837Z,74.60
2019-04-11T03:24:42.945Z,63.80
2019-04-11T03:27:15.456Z,60.00
2019-04-11T03:29:49.350Z,55.20
2019-04-11T03:33:27.718Z,53.00
2019-04-11T03:35:51.699Z,51.20
2019-04-11T03:37:56.633Z,48.00
2019-04-11T03:40:22.451Z,48.80
2019-04-11T03:42:57.071Z,49.20
2019-04-11T03:45:33.108Z,48.20
2019-04-11T03:48:02.400Z,49.40
2019-04-11T03:50:26.110Z,48.60
2019-04-11T03:52:59.492Z,48.40
2019-04-11T03:55:32.274Z,48.20
2019-04-11T03:58:05.962Z,46.80
2019-04-11T04:00:42.587Z,48.00
2019-04-11T04:03:14.159Z,45.60
2019-04-11T04:05:46.080Z,46.00
2019-04-11T04:08:18.276Z,48.00
2019-04-11T04:11:14.883Z,46.00
2019-04-11T04:14:05.765Z,42.60
2019-04-11T04:17:04.251Z,45.00
2019-04-11T04:19:45.571Z,44.20
2019-04-11T04:22:32.198Z,39.60
2019-04-11T04:25:04.477Z,37.20
2019-04-11T04:27:36.365Z,36.40
2019-04-11T04:30:08.771Z,37.20
2019-04-11T04:32:42.853Z,32.80
2019-04-11T04:35:19.020Z,27.60
2019-04-11T04:37:49.751Z,37.00
2019-04-11T04:40:35.542Z,39.00
2019-04-11T04:42:58.371Z,37.80
2019-04-11T04:45:36.157Z,37.20
2019-04-11T04:48:08.456Z,38.80
2019-04-11T04:50:38.751Z,35.60
2019-04-11T04:53:10.123Z,36.60
2019-04-11T04:55:43.428Z,35.20
2019-04-11T04:58:15.922Z,36.40
2019-04-11T05:00:51.120Z,35.80
2019-04-11T05:03:24.400Z,34.60
2019-04-11T05:05:55.813Z,35.20
2019-04-11T05:08:27.428Z,33.40
2019-04-11T05:10:59.137Z,34.60
2019-04-11T05:13:32.339Z,33.80
2019-04-11T05:16:15.150Z,36.80
2019-04-11T05:18:38.122Z,34.40
2019-04-11T05:21:10.698Z,37.80
2019-04-11T05:23:42.693Z,34.40
2019-04-11T05:26:15.207Z,37.60
2019-04-11T05:28:46.864Z,35.80
2019-04-11T05:31:20.535Z,40.80
2019-04-11T05:33:52.386Z,37.80
2019-04-11T05:36:24.725Z,37.60
2019-04-11T05:38:56.703Z,36.80
2019-04-11T05:41:29.302Z,39.20
2019-04-11T05:44:03.468Z,35.60
2019-04-11T05:46:47.238Z,39.00
2019-04-11T05:49:35.137Z,38.40
2019-04-11T05:52:10.262Z,35.40
2019-04-11T05:54:48.010Z,36.00
2019-04-11T05:57:22.648Z,34.00
2019-04-11T05:59:54.337Z,34.60
2019-04-11T06:02:45.663Z,31.20
2019-04-11T06:05:32.513Z,31.00
2019-04-11T06:08:05.466Z,32.20
2019-04-11T06:11:04.332Z,29.40
2019-04-11T06:13:47.351Z,32.80
2019-04-11T06:16:19.425Z,31.20
2019-04-11T06:19:22.877Z,32.20
2019-04-11T06:22:09.202Z,31.00
2019-04-11T06:25:11.246Z,33.20
2019-04-11T06:27:55.793Z,31.00
2019-04-11T06:30:40.314Z,33.00
2019-04-11T06:33:29.436Z,31.20
2019-04-11T06:36:26.700Z,31.00
2019-04-11T06:39:24.071Z,31.00
2019-04-11T06:42:15.052Z,32.80
2019-04-11T06:45:04.644Z,32.60
2019-04-11T06:48:05.851Z,33.00
2019-04-11T06:50:55.865Z,32.60
2019-04-11T06:53:34.409Z,32.20
2019-04-11T06:56:33.486Z,28.20
2019-04-11T06:59:22.416Z,30.80
2019-04-11T07:01:55.052Z,31.00
2019-04-11T07:04:31.493Z,32.20
2019-04-11T07:07:28.793Z,31.00
2019-04-11T07:10:20.226Z,31.00
2019-04-11T07:13:05.515Z,31.00
2019-04-11T07:15:56.823Z,29.40
2019-04-11T07:18:56.946Z,29.00
2019-04-11T07:21:35.411Z,29.80
2019-04-11T07:24:24.795Z,28.00
2019-04-11T07:27:05.176Z,28.60
2019-04-11T07:29:58.455Z,29.60
2019-04-11T07:32:30.334Z,29.00
2019-04-11T07:35:19.307Z,29.20
2019-04-11T07:37:55.885Z,29.60
2019-04-11T07:40:44.397Z,27.60
2019-04-11T07:43:43.733Z,28.80
2019-04-11T07:46:25.042Z,28.40
2019-04-11T07:49:03.612Z,26.20
2019-04-11T07:51:43.079Z,25.80
2019-04-11T07:54:20.270Z,26.00
2019-04-11T07:57:03.866Z,28.00
2019-04-11T08:00:08.044Z,24.60
2019-04-11T08:03:15.727Z,26.80
2019-04-11T08:06:05.542Z,25.60
2019-04-11T08:09:02.734Z,25.80
2019-04-11T08:11:52.608Z,22.60
2019-04-11T08:14:46.414Z,25.00
2019-04-11T08:17:33.311Z,27.00
2019-04-11T08:20:25.775Z,26.20
2019-04-11T08:23:01.406Z,25.40
2019-04-11T08:25:50.786Z,25.00
2019-04-11T08:28:22.975Z,27.60
2019-04-11T08:31:19.582Z,26.20
2019-04-11T08:33:55.131Z,27.00
2019-04-11T08:36:44.603Z,27.20
2019-04-11T08:39:22.848Z,28.00
2019-04-11T08:42:13.532Z,28.40
2019-04-11T08:44:48.000Z,26.80
2019-04-11T08:47:22.417Z,27.80
2019-04-11T08:49:57.000Z,24.00
2019-04-11T08:52:44.422Z,26.00
2019-04-11T08:55:21.090Z,26.20
2019-04-11T08:57:58.306Z,26.20
2019-04-11T09:00:46.329Z,26.00
2019-04-11T09:03:36.276Z,27.20
2019-04-11T09:06:12.407Z,30.20
2019-04-11T09:09:02.793Z,27.40
2019-04-11T09:11:41.137Z,27.00
2019-04-11T09:14:35.886Z,27.20
2019-04-11T09:17:16.705Z,25.60
2019-04-11T09:20:07.552Z,26.20
2019-04-11T09:23:01.626Z,26.00
2019-04-11T09:25:53.017Z,26.40
2019-04-11T09:28:44.435Z,25.00
2019-04-11T09:31:42.551Z,26.20
2019-04-11T09:34:46.436Z,23.20
2019-04-11T09:37:25.449Z,25.20
2019-04-11T09:40:12.115Z,25.60
2019-04-11T09:43:09.345Z,25.40
2019-04-11T09:46:01.812Z,24.00
2019-04-11T09:49:02.425Z,25.40
2019-04-11T09:51:44.278Z,26.00
2019-04-11T09:54:35.045Z,26.00
2019-04-11T09:57:20.576Z,23.60
2019-04-11T10:00:16.443Z,24.80
2019-04-11T10:03:10.818Z,24.20
2019-04-11T10:06:19.717Z,24.20
2019-04-11T10:08:55.479Z,26.80
2019-04-11T10:11:44.327Z,23.40
2019-04-11T10:14:21.731Z,25.40
2019-04-11T10:17:16.854Z,23.40
2019-04-11T10:20:08.682Z,24.00
2019-04-11T10:23:01.414Z,23.60
2019-04-11T10:25:37.080Z,22.20
2019-04-11T10:28:31.316Z,22.40
2019-04-11T10:31:14.795Z,23.00
2019-04-11T10:34:04.656Z,22.80
2019-04-11T10:36:51.502Z,22.80
2019-04-11T10:39:59.819Z,23.00
2019-04-11T10:42:32.846Z,22.20
2019-04-11T10:45:24.858Z,23.40
2019-04-11T10:48:03.312Z,23.60
2019-04-11T10:50:54.121Z,21.00
2019-04-11T10:53:27.088Z,22.40
2019-04-11T10:56:16.264Z,21.20
2019-04-11T10:58:55.282Z,22.80
2019-04-11T11:01:44.697Z,23.40
2019-04-11T11:04:23.439Z,23.40
2019-04-11T11:07:02.346Z,23.20
2019-04-11T11:09:52.362Z,23.20
2019-04-11T11:12:47.561Z,24.20
2019-04-11T11:15:27.496Z,23.20
2019-04-11T11:21:01.782Z,21.40
2019-04-11T11:23:49.342Z,22.80
2019-04-11T11:26:25.683Z,22.80
2019-04-11T11:29:15.803Z,21.60
2019-04-11T11:31:56.914Z,21.60
2019-04-11T11:34:34.952Z,22.00
2019-04-11T11:37:31.499Z,26.20
2019-04-11T11:40:41.661Z,24.80
2019-04-11T11:43:32.955Z,24.00
2019-04-11T11:46:29.734Z,23.80
2019-04-11T11:49:07.911Z,21.40
2019-04-11T11:52:11.260Z,22.20
2019-04-11T11:54:50.214Z,24.00
2019-04-11T11:57:27.198Z,21.40
2019-04-11T12:00:12.702Z,23.40
2019-04-11T12:02:59.467Z,22.60
2019-04-11T12:05:34.883Z,22.40
2019-04-11T12:08:24.630Z,22.80
2019-04-11T12:11:06.043Z,21.40
2019-04-11T12:14:05.111Z,22.40
2019-04-11T12:17:01.918Z,23.20
2019-04-11T12:19:49.298Z,22.20
2019-04-11T12:22:16.010Z,22.20
2019-04-11T12:25:16.585Z,19.20
2019-04-11T12:28:13.709Z,22.20
2019-04-11T12:30:48.162Z,21.40
2019-04-11T12:33:29.716Z,23.00
2019-04-11T12:36:26.457Z,23.00
2019-04-11T12:39:28.785Z,22.20
2019-04-11T12:42:21.350Z,24.20
2019-04-11T12:45:10.581Z,22.60
2019-04-11T12:47:49.514Z,24.40
2019-04-11T12:50:40.064Z,26.80
2019-04-11T12:53:13.985Z,27.20
2019-04-11T12:56:03.001Z,26.00
2019-04-11T12:58:46.882Z,23.00
2019-04-11T13:01:49.791Z,24.80
2019-04-11T13:04:31.974Z,26.60
2019-04-11T13:07:34.306Z,23.80
2019-04-11T13:10:24.078Z,25.40
2019-04-11T13:13:21.012Z,28.60
2019-04-11T13:15:59.157Z,27.00
2019-04-11T13:19:02.071Z,28.00
2019-04-11T13:21:40.521Z,27.00
2019-04-11T13:24:29.652Z,26.60
2019-04-11T13:27:25.977Z,27.00
2019-04-11T13:30:17.901Z,28.20
2019-04-11T13:32:57.949Z,28.00
2019-04-11T13:36:02.226Z,28.60
2019-04-11T13:38:41.881Z,32.60
2019-04-11T13:41:30.995Z,30.80
2019-04-11T13:44:12.223Z,31.00
2019-04-11T13:47:02.735Z,31.20
2019-04-11T13:49:45.045Z,31.80
2019-04-11T13:52:35.959Z,33.00
2019-04-11T13:55:23.140Z,33.00
2019-04-11T13:58:14.271Z,34.00
2019-04-11T14:00:53.735Z,34.00
2019-04-11T14:03:44.453Z,32.80
2019-04-11T14:06:31.990Z,32.80
2019-04-11T14:09:26.035Z,31.80
2019-04-11T14:11:59.622Z,31.00
2019-04-11T14:14:53.477Z,31.20
2019-04-11T14:17:51.206Z,30.00
2019-04-11T14:20:51.516Z,29.20
2019-04-11T14:23:42.734Z,30.20
2019-04-11T14:26:34.249Z,34.00
2019-04-11T14:29:40.819Z,34.00
2019-04-11T14:32:38.823Z,31.00
2019-04-11T14:35:40.658Z,31.40
2019-04-11T14:38:14.258Z,31.00
2019-04-11T14:41:01.631Z,30.60
2019-04-11T14:43:37.490Z,33.00
2019-04-11T14:46:22.342Z,31.80
2019-04-11T14:49:15.042Z,31.60
2019-04-11T14:52:04.011Z,31.20
2019-04-11T14:54:39.706Z,31.00
2019-04-11T14:57:35.529Z,31.60
2019-04-11T15:00:28.144Z,31.00
2019-04-11T15:03:25.016Z,31.20
2019-04-11T15:06:01.901Z,32.00
2019-04-11T15:08:50.511Z,31.60
2019-04-11T15:11:42.141Z,31.20
2019-04-11T15:14:28.618Z,31.20
2019-04-11T15:17:21.537Z,32.00
2019-04-11T15:20:09.186Z,33.00
2019-04-11T15:22:44.909Z,31.60
2019-04-11T15:25:37.922Z,30.20
2019-04-11T15:28:36.207Z,31.00
2019-04-11T15:31:26.214Z,32.40
2019-04-11T15:34:26.401Z,30.60
2019-04-11T15:37:19.307Z,30.20
2019-04-11T15:40:09.809Z,32.20
2019-04-11T15:43:03.419Z,31.80
2019-04-11T15:46:01.394Z,31.20
2019-04-11T15:49:01.230Z,31.20
2019-04-11T15:51:36.370Z,31.20
2019-04-11T15:54:27.376Z,30.80
2019-04-11T15:57:05.631Z,30.60
2019-04-11T15:59:56.226Z,31.40
2019-04-11T16:02:59.474Z,31.20
2019-04-11T16:05:50.057Z,32.20
2019-04-11T16:08:30.900Z,31.60
2019-04-11T16:11:39.851Z,29.60
2019-04-11T16:14:19.588Z,30.40
2019-04-11T16:17:25.596Z,32.40
2019-04-11T16:20:00.939Z,29.20
2019-04-11T16:23:11.383Z,33.40
2019-04-11T16:25:55.968Z,33.20
2019-04-11T16:28:56.171Z,31.40
2019-04-11T16:31:34.720Z,28.40
2019-04-11T16:34:24.701Z,32.60
2019-04-11T16:37:00.043Z,31.80
2019-04-11T16:39:53.500Z,32.60
2019-04-11T16:42:45.049Z,31.40
2019-04-11T16:45:33.632Z,32.80
2019-04-11T16:48:05.005Z,33.20
2019-04-11T16:50:36.907Z,34.20
2019-04-11T16:53:11.524Z,33.20
2019-04-11T16:55:43.607Z,33.40
2019-04-11T16:58:19.651Z,33.20
2019-04-11T17:00:52.637Z,32.40
2019-04-11T17:03:25.153Z,30.60
2019-04-11T17:06:10.308Z,32.40
2019-04-11T17:08:51.632Z,34.80
2019-04-11T17:11:26.675Z,34.20
2019-04-11T17:13:57.881Z,33.60
2019-04-11T17:16:30.724Z,33.20
2019-04-11T17:19:05.529Z,33.40
2019-04-11T17:21:43.200Z,35.20
2019-04-11T17:24:09.789Z,33.20
2019-04-11T17:26:41.683Z,34.20
2019-04-11T17:29:14.606Z,33.20
2019-04-11T17:31:46.562Z,33.40
2019-04-11T17:34:18.148Z,37.20
2019-04-11T17:36:49.751Z,33.20
2019-04-11T17:39:22.309Z,35.60
2019-04-11T17:41:53.866Z,39.20
2019-04-11T17:44:27.882Z,37.80
2019-04-11T17:46:59.496Z,35.40
2019-04-11T17:49:31.089Z,34.80
2019-04-11T17:52:04.878Z,36.60
2019-04-11T17:54:36.010Z,35.20
2019-04-11T17:57:07.812Z,34.80
2019-04-11T17:59:39.299Z,34.00
2019-04-11T18:02:11.183Z,34.20
2019-04-11T18:04:45.747Z,33.20
2019-04-11T18:07:17.619Z,31.40
2019-04-11T18:09:49.600Z,34.60
2019-04-11T18:12:21.101Z,33.40
2019-04-11T18:14:53.892Z,33.60
2019-04-11T18:17:25.573Z,33.20
2019-04-11T18:19:57.414Z,34.00
2019-04-11T18:22:28.964Z,35.20
2019-04-11T18:25:00.503Z,35.60
2019-04-11T18:27:33.170Z,34.20
2019-04-11T18:30:07.088Z,35.20
2019-04-11T18:32:38.895Z,35.00
2019-04-11T18:35:12.806Z,34.60
2019-04-11T18:37:44.380Z,36.80
2019-04-11T18:40:18.140Z,34.20
2019-04-11T18:42:51.894Z,34.60
2019-04-11T18:45:24.018Z,35.60
2019-04-11T18:47:55.501Z,35.20
2019-04-11T18:50:28.821Z,33.20
2019-04-11T18:53:00.544Z,34.40
2019-04-11T18:55:32.147Z,37.40
2019-04-11T18:58:04.861Z,35.20
2019-04-11T19:00:38.325Z,35.40
2019-04-11T19:03:14.320Z,36.60
2019-04-11T19:05:45.104Z,35.20
2019-04-11T19:08:16.820Z,35.20
2019-04-11T19:10:48.745Z,36.20
2019-04-11T19:13:20.963Z,37.20
2019-04-11T19:15:55.231Z,35.80
2019-04-11T19:18:27.150Z,35.60
2019-04-11T19:20:59.038Z,36.40
2019-04-11T19:23:30.783Z,35.80
2019-04-11T19:26:02.398Z,34.40
2019-04-11T19:28:34.066Z,34.40
2019-04-11T19:31:06.092Z,35.20
2019-04-11T19:33:39.858Z,35.40
2019-04-11T19:36:12.264Z,34.40
2019-04-11T19:38:44.552Z,35.40
2019-04-11T19:41:17.999Z,36.60
2019-04-11T19:43:51.303Z,36.00
2019-04-11T19:46:23.028Z,37.80
2019-04-11T19:48:59.062Z,35.80
2019-04-11T19:51:29.540Z,36.20
2019-04-11T19:54:03.350Z,35.40
2019-04-11T19:56:48.462Z,38.40
2019-04-11T19:59:20.101Z,35.80
2019-04-11T20:01:53.212Z,35.60
2019-04-11T20:04:25.910Z,37.00
2019-04-11T20:06:57.814Z,37.60
2019-04-11T20:09:29.418Z,36.00
2019-04-11T20:12:01.206Z,34.40
2019-04-11T20:14:34.801Z,39.40
2019-04-11T20:17:09.067Z,37.20
2019-04-11T20:19:39.847Z,34.80
2019-04-11T20:22:11.508Z,33.20
2019-04-11T20:24:46.758Z,33.80
2019-04-11T20:27:20.088Z,37.00
2019-04-11T20:29:53.124Z,40.20
2019-04-11T20:32:24.130Z,36.80
2019-04-11T20:34:58.905Z,39.00
2019-04-11T20:37:39.130Z,33.40
2019-04-11T20:40:04.383Z,36.80
2019-04-11T20:42:36.190Z,38.80
2019-04-11T20:45:08.093Z,35.20
2019-04-11T20:47:39.926Z,35.40
2019-04-11T20:50:12.118Z,36.60
2019-04-11T20:52:44.093Z,37.40
2019-04-11T20:55:16.022Z,35.20
2019-04-11T20:57:48.220Z,36.40
2019-04-11T21:00:27.456Z,35.20
2019-04-11T21:03:00.422Z,37.60
2019-04-11T21:05:33.268Z,35.00
2019-04-11T21:08:05.092Z,36.00
2019-04-11T21:10:36.607Z,36.00
2019-04-11T21:13:08.407Z,38.80
2019-04-11T21:15:40.202Z,34.40
2019-04-11T21:18:12.153Z,38.60
2019-04-11T21:20:43.916Z,35.80
2019-04-11T21:23:24.491Z,34.80
2019-04-11T21:25:49.482Z,36.60
2019-04-11T21:28:21.259Z,37.40
2019-04-11T21:30:53.123Z,35.40
2019-04-11T21:33:24.978Z,35.80
2019-04-11T21:35:56.836Z,38.60
2019-04-11T21:38:31.647Z,39.40
2019-04-11T21:41:05.905Z,41.20
2019-04-11T21:43:37.543Z,36.00
2019-04-11T21:46:09.175Z,37.40
2019-04-11T21:48:40.858Z,38.00
2019-04-11T21:51:12.929Z,35.60
2019-04-11T21:53:45.343Z,38.80
2019-04-11T21:56:19.325Z,39.60
2019-04-11T21:58:51.074Z,36.60
2019-04-11T22:01:24.985Z,40.60
2019-04-11T22:03:58.477Z,37.80
2019-04-11T22:06:31.126Z,39.00
2019-04-11T22:09:05.072Z,36.00
2019-04-11T22:11:38.359Z,35.40
2019-04-11T22:14:11.300Z,37.20
2019-04-11T22:16:45.170Z,41.00
2019-04-11T22:19:16.977Z,38.20
2019-04-11T22:21:50.620Z,38.60
2019-04-11T22:24:22.232Z,33.60
2019-04-11T22:26:54.245Z,37.80
2019-04-11T22:29:25.904Z,40.40
2019-04-11T22:31:58.561Z,37.40
2019-04-11T22:34:42.822Z,38.40
2019-04-11T22:37:14.567Z,38.20
2019-04-11T22:39:46.582Z,39.40
2019-04-11T22:42:18.199Z,37.40
2019-04-11T22:44:49.932Z,38.80
2019-04-11T22:47:22.046Z,40.80
2019-04-11T22:49:54.147Z,38.80
2019-04-11T22:52:26.014Z,34.60
2019-04-11T22:54:57.445Z,40.20
2019-04-11T22:57:29.344Z,40.20
2019-04-11T23:00:01.093Z,38.20
2019-04-11T23:02:47.436Z,36.60
2019-04-11T23:05:20.068Z,37.00
2019-04-11T23:07:51.926Z,40.60
2019-04-11T23:10:24.470Z,43.40
2019-04-11T23:12:56.354Z,43.20
2019-04-11T23:15:28.035Z,40.00
2019-04-11T23:17:59.607Z,38.60
2019-04-11T23:20:31.556Z,35.80
2019-04-11T23:23:03.747Z,40.40
2019-04-11T23:25:36.602Z,40.40
2019-04-11T23:28:08.408Z,41.80
2019-04-11T23:30:40.151Z,42.60
2019-04-11T23:33:15.527Z,38.60
2019-04-11T23:35:48.873Z,40.40
2019-04-11T23:38:23.579Z,40.40
2019-04-11T23:40:54.408Z,41.60
2019-04-11T23:43:26.123Z,39.80
2019-04-11T23:45:57.948Z,40.00
2019-04-11T23:48:29.733Z,39.60
2019-04-11T23:51:01.597Z,40.00
2019-04-11T23:53:35.311Z,40.20
2019-04-11T23:56:07.053Z,42.20
2019-04-11T23:58:39.064Z,38.60
